sensor_id;sensor_type;location;lat;lon;timestamp;P1;durP1;ratioP1;P2;durP2;ratioP2
30874;SDS011;17581;43.222;27.924;2023-10-19T00:00:18;41.03;;;9.60;;
30874;SDS011;17581;43.222;27.924;2023-10-19T00:02:53;20.60;;;9.75;;
30874;SDS011;17581;43.222;27.924;2023-10-19T00:05:19;30.70;;;13.07;;
30874;SDS011;17581;43.222;27.924;2023-10-19T00:07:45;17.92;;;12.32;;
30874;SDS011;17581;43.222;27.924;2023-10-19T00:10:11;12.88;;;7.68;;
30874;SDS011;17581;43.222;27.924;2023-10-19T00:12:41;13.77;;;5.30;;
30874;SDS011;17581;43.222;27.924;2023-10-19T00:15:09;9.80;;;5.07;;
30874;SDS011;17581;43.222;27.924;2023-10-19T00:17:36;14.63;;;7.15;;
30874;SDS011;17581;43.222;27.924;2023-10-19T00:20:04;17.95;;;6.85;;
30874;SDS011;17581;43.222;27.924;2023-10-19T00:22:51;14.75;;;8.27;;
30874;SDS011;17581;43.222;27.924;2023-10-19T00:25:17;31.95;;;12.43;;
30874;SDS011;17581;43.222;27.924;2023-10-19T00:27:43;36.00;;;13.95;;
30874;SDS011;17581;43.222;27.924;2023-10-19T00:30:10;33.20;;;17.73;;
30874;SDS011;17581;43.222;27.924;2023-10-19T00:32:36;32.25;;;16.30;;
30874;SDS011;17581;43.222;27.924;2023-10-19T00:35:04;41.50;;;19.02;;
30874;SDS011;17581;43.222;27.924;2023-10-19T00:37:46;7.93;;;4.28;;
30874;SDS011;17581;43.222;27.924;2023-10-19T00:40:13;12.32;;;6.95;;
30874;SDS011;17581;43.222;27.924;2023-10-19T00:42:58;8.93;;;3.55;;
30874;SDS011;17581;43.222;27.924;2023-10-19T00:45:28;5.57;;;3.63;;
30874;SDS011;17581;43.222;27.924;2023-10-19T00:47:53;12.30;;;3.70;;
30874;SDS011;17581;43.222;27.924;2023-10-19T00:50:20;7.60;;;3.45;;
30874;SDS011;17581;43.222;27.924;2023-10-19T00:52:47;9.00;;;3.40;;
30874;SDS011;17581;43.222;27.924;2023-10-19T00:55:17;6.47;;;3.10;;
30874;SDS011;17581;43.222;27.924;2023-10-19T00:57:50;31.42;;;5.07;;
30874;SDS011;17581;43.222;27.924;2023-10-19T01:00:17;8.68;;;4.05;;
30874;SDS011;17581;43.222;27.924;2023-10-19T01:02:59;14.65;;;4.45;;
30874;SDS011;17581;43.222;27.924;2023-10-19T01:05:28;24.83;;;5.22;;
30874;SDS011;17581;43.222;27.924;2023-10-19T01:08:03;15.88;;;3.80;;
30874;SDS011;17581;43.222;27.924;2023-10-19T01:10:47;20.48;;;3.83;;
30874;SDS011;17581;43.222;27.924;2023-10-19T01:13:17;13.95;;;3.58;;
30874;SDS011;17581;43.222;27.924;2023-10-19T01:15:43;10.23;;;3.83;;
30874;SDS011;17581;43.222;27.924;2023-10-19T01:18:08;13.73;;;4.70;;
30874;SDS011;17581;43.222;27.924;2023-10-19T01:20:38;16.50;;;3.92;;
30874;SDS011;17581;43.222;27.924;2023-10-19T01:23:16;13.10;;;4.20;;
30874;SDS011;17581;43.222;27.924;2023-10-19T01:25:51;5.30;;;3.00;;
30874;SDS011;17581;43.222;27.924;2023-10-19T01:28:21;10.32;;;4.97;;
30874;SDS011;17581;43.222;27.924;2023-10-19T01:31:06;11.75;;;4.28;;
30874;SDS011;17581;43.222;27.924;2023-10-19T01:33:32;15.32;;;5.78;;
30874;SDS011;17581;43.222;27.924;2023-10-19T01:36:00;8.90;;;5.03;;
30874;SDS011;17581;43.222;27.924;2023-10-19T01:38:39;11.50;;;5.97;;
30874;SDS011;17581;43.222;27.924;2023-10-19T01:41:07;11.13;;;5.07;;
30874;SDS011;17581;43.222;27.924;2023-10-19T01:44:00;14.85;;;5.03;;
30874;SDS011;17581;43.222;27.924;2023-10-19T01:46:29;14.93;;;4.70;;
30874;SDS011;17581;43.222;27.924;2023-10-19T01:49:02;12.50;;;4.43;;
30874;SDS011;17581;43.222;27.924;2023-10-19T01:51:30;14.68;;;4.20;;
30874;SDS011;17581;43.222;27.924;2023-10-19T01:53:58;10.18;;;4.07;;
30874;SDS011;17581;43.222;27.924;2023-10-19T01:56:26;10.18;;;3.75;;
30874;SDS011;17581;43.222;27.924;2023-10-19T01:58:52;11.63;;;4.15;;
30874;SDS011;17581;43.222;27.924;2023-10-19T02:01:19;7.13;;;3.47;;
30874;SDS011;17581;43.222;27.924;2023-10-19T02:03:46;8.30;;;3.55;;
30874;SDS011;17581;43.222;27.924;2023-10-19T02:08:45;33.30;;;7.18;;
30874;SDS011;17581;43.222;27.924;2023-10-19T02:11:21;14.93;;;7.93;;
30874;SDS011;17581;43.222;27.924;2023-10-19T02:13:54;33.30;;;7.85;;
30874;SDS011;17581;43.222;27.924;2023-10-19T02:16:21;28.65;;;8.23;;
30874;SDS011;17581;43.222;27.924;2023-10-19T02:18:50;11.10;;;7.10;;
30874;SDS011;17581;43.222;27.924;2023-10-19T02:21:17;24.27;;;7.13;;
30874;SDS011;17581;43.222;27.924;2023-10-19T02:23:55;18.50;;;6.45;;
30874;SDS011;17581;43.222;27.924;2023-10-19T02:26:22;22.00;;;7.35;;
30874;SDS011;17581;43.222;27.924;2023-10-19T02:28:51;21.38;;;7.63;;
30874;SDS011;17581;43.222;27.924;2023-10-19T02:31:17;15.30;;;7.13;;
30874;SDS011;17581;43.222;27.924;2023-10-19T02:33:45;14.80;;;4.82;;
30874;SDS011;17581;43.222;27.924;2023-10-19T02:36:14;17.45;;;5.97;;
30874;SDS011;17581;43.222;27.924;2023-10-19T02:38:44;13.63;;;4.15;;
30874;SDS011;17581;43.222;27.924;2023-10-19T02:43:40;21.75;;;5.03;;
30874;SDS011;17581;43.222;27.924;2023-10-19T02:46:07;19.13;;;5.57;;
30874;SDS011;17581;43.222;27.924;2023-10-19T02:48:32;10.45;;;3.53;;
30874;SDS011;17581;43.222;27.924;2023-10-19T02:50:58;15.10;;;4.97;;
30874;SDS011;17581;43.222;27.924;2023-10-19T02:53:31;10.88;;;4.85;;
30874;SDS011;17581;43.222;27.924;2023-10-19T02:55:57;27.95;;;5.43;;
30874;SDS011;17581;43.222;27.924;2023-10-19T02:58:27;22.40;;;3.92;;
30874;SDS011;17581;43.222;27.924;2023-10-19T03:00:53;13.73;;;3.75;;
30874;SDS011;17581;43.222;27.924;2023-10-19T03:03:20;8.63;;;3.60;;
30874;SDS011;17581;43.222;27.924;2023-10-19T03:05:45;27.75;;;4.63;;
30874;SDS011;17581;43.222;27.924;2023-10-19T03:08:11;11.50;;;4.35;;
30874;SDS011;17581;43.222;27.924;2023-10-19T03:10:40;10.63;;;3.28;;
30874;SDS011;17581;43.222;27.924;2023-10-19T03:13:09;11.23;;;3.42;;
30874;SDS011;17581;43.222;27.924;2023-10-19T03:15:34;5.95;;;3.85;;
30874;SDS011;17581;43.222;27.924;2023-10-19T03:18:01;12.15;;;4.28;;
30874;SDS011;17581;43.222;27.924;2023-10-19T03:20:28;40.40;;;6.05;;
30874;SDS011;17581;43.222;27.924;2023-10-19T03:22:58;12.90;;;5.28;;
30874;SDS011;17581;43.222;27.924;2023-10-19T03:25:27;34.03;;;5.00;;
30874;SDS011;17581;43.222;27.924;2023-10-19T03:28:11;26.08;;;5.65;;
30874;SDS011;17581;43.222;27.924;2023-10-19T03:30:37;40.75;;;5.38;;
30874;SDS011;17581;43.222;27.924;2023-10-19T03:33:06;15.68;;;4.38;;
30874;SDS011;17581;43.222;27.924;2023-10-19T03:35:36;21.42;;;4.40;;
30874;SDS011;17581;43.222;27.924;2023-10-19T03:38:03;37.05;;;4.90;;
30874;SDS011;17581;43.222;27.924;2023-10-19T03:40:44;41.17;;;5.28;;
30874;SDS011;17581;43.222;27.924;2023-10-19T03:43:16;26.50;;;4.35;;
30874;SDS011;17581;43.222;27.924;2023-10-19T03:45:44;28.58;;;5.28;;
30874;SDS011;17581;43.222;27.924;2023-10-19T03:48:19;41.63;;;5.78;;
30874;SDS011;17581;43.222;27.924;2023-10-19T03:50:51;16.88;;;4.75;;
30874;SDS011;17581;43.222;27.924;2023-10-19T03:53:18;35.53;;;7.72;;
30874;SDS011;17581;43.222;27.924;2023-10-19T03:55:46;63.47;;;8.98;;
30874;SDS011;17581;43.222;27.924;2023-10-19T03:58:12;153.63;;;16.88;;
30874;SDS011;17581;43.222;27.924;2023-10-19T04:00:38;37.35;;;7.72;;
30874;SDS011;17581;43.222;27.924;2023-10-19T04:03:03;75.47;;;8.68;;
30874;SDS011;17581;43.222;27.924;2023-10-19T04:05:29;139.13;;;18.50;;
30874;SDS011;17581;43.222;27.924;2023-10-19T04:07:56;124.57;;;14.02;;
30874;SDS011;17581;43.222;27.924;2023-10-19T04:10:30;87.05;;;11.93;;
30874;SDS011;17581;43.222;27.924;2023-10-19T04:13:03;95.55;;;10.63;;
30874;SDS011;17581;43.222;27.924;2023-10-19T04:15:30;63.47;;;16.48;;
30874;SDS011;17581;43.222;27.924;2023-10-19T04:17:58;60.58;;;9.30;;
30874;SDS011;17581;43.222;27.924;2023-10-19T04:20:25;53.90;;;8.98;;
30874;SDS011;17581;43.222;27.924;2023-10-19T04:22:51;90.20;;;10.90;;
30874;SDS011;17581;43.222;27.924;2023-10-19T04:25:17;58.33;;;9.00;;
30874;SDS011;17581;43.222;27.924;2023-10-19T04:27:50;67.95;;;12.40;;
30874;SDS011;17581;43.222;27.924;2023-10-19T04:30:17;79.75;;;8.45;;
30874;SDS011;17581;43.222;27.924;2023-10-19T04:32:46;53.45;;;7.88;;
30874;SDS011;17581;43.222;27.924;2023-10-19T04:35:13;34.08;;;8.73;;
30874;SDS011;17581;43.222;27.924;2023-10-19T04:37:40;107.22;;;14.15;;
30874;SDS011;17581;43.222;27.924;2023-10-19T04:40:08;98.35;;;12.25;;
30874;SDS011;17581;43.222;27.924;2023-10-19T04:42:34;120.70;;;15.13;;
30874;SDS011;17581;43.222;27.924;2023-10-19T04:45:02;118.82;;;15.45;;
30874;SDS011;17581;43.222;27.924;2023-10-19T04:47:28;141.95;;;15.90;;
30874;SDS011;17581;43.222;27.924;2023-10-19T04:49:53;124.20;;;13.88;;
30874;SDS011;17581;43.222;27.924;2023-10-19T04:52:19;157.00;;;17.75;;
30874;SDS011;17581;43.222;27.924;2023-10-19T04:54:44;165.02;;;16.30;;
30874;SDS011;17581;43.222;27.924;2023-10-19T04:57:10;195.77;;;18.20;;
30874;SDS011;17581;43.222;27.924;2023-10-19T04:59:36;154.32;;;17.83;;
30874;SDS011;17581;43.222;27.924;2023-10-19T05:02:01;231.07;;;23.58;;
30874;SDS011;17581;43.222;27.924;2023-10-19T05:04:27;138.68;;;13.00;;
30874;SDS011;17581;43.222;27.924;2023-10-19T05:06:53;48.08;;;8.00;;
30874;SDS011;17581;43.222;27.924;2023-10-19T05:09:18;98.57;;;11.50;;
30874;SDS011;17581;43.222;27.924;2023-10-19T05:11:44;60.88;;;11.68;;
30874;SDS011;17581;43.222;27.924;2023-10-19T05:14:11;52.72;;;9.13;;
30874;SDS011;17581;43.222;27.924;2023-10-19T05:16:39;126.25;;;17.33;;
30874;SDS011;17581;43.222;27.924;2023-10-19T05:19:07;127.25;;;15.60;;
30874;SDS011;17581;43.222;27.924;2023-10-19T05:21:32;103.93;;;14.52;;
30874;SDS011;17581;43.222;27.924;2023-10-19T05:23:59;76.35;;;11.57;;
30874;SDS011;17581;43.222;27.924;2023-10-19T05:26:27;118.10;;;13.02;;
30874;SDS011;17581;43.222;27.924;2023-10-19T05:28:52;144.48;;;16.10;;
30874;SDS011;17581;43.222;27.924;2023-10-19T05:31:19;73.40;;;12.32;;
30874;SDS011;17581;43.222;27.924;2023-10-19T05:33:45;128.88;;;16.70;;
30874;SDS011;17581;43.222;27.924;2023-10-19T05:36:13;94.97;;;13.07;;
30874;SDS011;17581;43.222;27.924;2023-10-19T05:38:39;116.03;;;13.18;;
30874;SDS011;17581;43.222;27.924;2023-10-19T05:41:05;109.50;;;13.27;;
30874;SDS011;17581;43.222;27.924;2023-10-19T05:43:32;86.85;;;11.75;;
30874;SDS011;17581;43.222;27.924;2023-10-19T05:45:59;188.93;;;19.17;;
30874;SDS011;17581;43.222;27.924;2023-10-19T05:48:25;99.57;;;12.95;;
30874;SDS011;17581;43.222;27.924;2023-10-19T05:50:51;82.60;;;15.02;;
30874;SDS011;17581;43.222;27.924;2023-10-19T05:53:16;178.35;;;23.80;;
30874;SDS011;17581;43.222;27.924;2023-10-19T05:55:47;140.20;;;19.33;;
30874;SDS011;17581;43.222;27.924;2023-10-19T05:58:14;204.75;;;19.17;;
30874;SDS011;17581;43.222;27.924;2023-10-19T06:00:40;137.30;;;17.35;;
30874;SDS011;17581;43.222;27.924;2023-10-19T06:03:05;156.27;;;17.52;;
30874;SDS011;17581;43.222;27.924;2023-10-19T06:05:31;118.43;;;18.60;;
30874;SDS011;17581;43.222;27.924;2023-10-19T06:07:56;155.07;;;17.70;;
30874;SDS011;17581;43.222;27.924;2023-10-19T06:10:24;104.13;;;14.75;;
30874;SDS011;17581;43.222;27.924;2023-10-19T06:12:50;143.02;;;18.38;;
30874;SDS011;17581;43.222;27.924;2023-10-19T06:15:17;93.38;;;14.38;;
30874;SDS011;17581;43.222;27.924;2023-10-19T06:17:46;19.13;;;5.22;;
30874;SDS011;17581;43.222;27.924;2023-10-19T06:20:13;28.10;;;4.53;;
30874;SDS011;17581;43.222;27.924;2023-10-19T06:22:57;17.17;;;4.00;;
30874;SDS011;17581;43.222;27.924;2023-10-19T06:25:30;30.17;;;4.80;;
30874;SDS011;17581;43.222;27.924;2023-10-19T06:27:56;15.73;;;5.22;;
30874;SDS011;17581;43.222;27.924;2023-10-19T06:30:24;30.67;;;7.15;;
30874;SDS011;17581;43.222;27.924;2023-10-19T06:32:52;37.97;;;8.10;;
30874;SDS011;17581;43.222;27.924;2023-10-19T06:35:20;29.98;;;6.13;;
30874;SDS011;17581;43.222;27.924;2023-10-19T06:37:46;21.23;;;4.75;;
30874;SDS011;17581;43.222;27.924;2023-10-19T06:40:13;111.40;;;12.25;;
30874;SDS011;17581;43.222;27.924;2023-10-19T06:42:43;18.95;;;5.13;;
30874;SDS011;17581;43.222;27.924;2023-10-19T06:45:10;56.72;;;6.82;;
30874;SDS011;17581;43.222;27.924;2023-10-19T06:47:39;35.25;;;7.03;;
30874;SDS011;17581;43.222;27.924;2023-10-19T06:50:12;54.95;;;6.70;;
30874;SDS011;17581;43.222;27.924;2023-10-19T06:52:40;38.13;;;7.03;;
30874;SDS011;17581;43.222;27.924;2023-10-19T06:55:08;29.67;;;6.32;;
30874;SDS011;17581;43.222;27.924;2023-10-19T06:57:48;25.95;;;7.10;;
30874;SDS011;17581;43.222;27.924;2023-10-19T07:00:16;43.28;;;8.20;;
30874;SDS011;17581;43.222;27.924;2023-10-19T07:02:50;48.42;;;7.45;;
30874;SDS011;17581;43.222;27.924;2023-10-19T07:05:16;28.35;;;7.63;;
30874;SDS011;17581;43.222;27.924;2023-10-19T07:07:44;35.20;;;6.47;;
30874;SDS011;17581;43.222;27.924;2023-10-19T07:10:11;43.67;;;7.93;;
30874;SDS011;17581;43.222;27.924;2023-10-19T07:12:38;61.22;;;9.82;;
30874;SDS011;17581;43.222;27.924;2023-10-19T07:15:05;37.97;;;7.35;;
30874;SDS011;17581;43.222;27.924;2023-10-19T07:17:39;16.45;;;5.35;;
30874;SDS011;17581;43.222;27.924;2023-10-19T07:20:05;29.55;;;6.53;;
30874;SDS011;17581;43.222;27.924;2023-10-19T07:22:33;21.38;;;7.07;;
30874;SDS011;17581;43.222;27.924;2023-10-19T07:24:59;58.15;;;28.08;;
30874;SDS011;17581;43.222;27.924;2023-10-19T07:27:25;33.10;;;11.30;;
30874;SDS011;17581;43.222;27.924;2023-10-19T07:29:53;14.27;;;6.68;;
30874;SDS011;17581;43.222;27.924;2023-10-19T07:32:18;21.88;;;5.68;;
30874;SDS011;17581;43.222;27.924;2023-10-19T07:34:44;17.63;;;4.40;;
30874;SDS011;17581;43.222;27.924;2023-10-19T07:37:10;15.70;;;4.00;;
30874;SDS011;17581;43.222;27.924;2023-10-19T07:39:44;25.27;;;5.38;;
30874;SDS011;17581;43.222;27.924;2023-10-19T07:42:10;16.23;;;4.40;;
30874;SDS011;17581;43.222;27.924;2023-10-19T07:44:36;12.32;;;3.88;;
30874;SDS011;17581;43.222;27.924;2023-10-19T07:47:02;10.35;;;4.28;;
30874;SDS011;17581;43.222;27.924;2023-10-19T07:49:28;11.57;;;3.90;;
30874;SDS011;17581;43.222;27.924;2023-10-19T07:51:54;34.38;;;5.22;;
30874;SDS011;17581;43.222;27.924;2023-10-19T07:54:20;10.05;;;3.70;;
30874;SDS011;17581;43.222;27.924;2023-10-19T07:56:46;19.83;;;6.63;;
30874;SDS011;17581;43.222;27.924;2023-10-19T07:59:12;18.90;;;5.57;;
30874;SDS011;17581;43.222;27.924;2023-10-19T08:01:38;23.60;;;5.53;;
30874;SDS011;17581;43.222;27.924;2023-10-19T08:04:04;39.53;;;5.65;;
30874;SDS011;17581;43.222;27.924;2023-10-19T08:06:30;21.35;;;4.43;;
30874;SDS011;17581;43.222;27.924;2023-10-19T08:08:56;47.67;;;6.43;;
30874;SDS011;17581;43.222;27.924;2023-10-19T08:11:23;21.65;;;4.05;;
30874;SDS011;17581;43.222;27.924;2023-10-19T08:13:49;22.88;;;6.18;;
30874;SDS011;17581;43.222;27.924;2023-10-19T08:16:15;25.85;;;5.00;;
30874;SDS011;17581;43.222;27.924;2023-10-19T08:18:43;16.13;;;4.22;;
30874;SDS011;17581;43.222;27.924;2023-10-19T08:21:08;19.65;;;4.25;;
30874;SDS011;17581;43.222;27.924;2023-10-19T08:23:34;28.23;;;4.38;;
30874;SDS011;17581;43.222;27.924;2023-10-19T08:25:59;14.32;;;3.85;;
30874;SDS011;17581;43.222;27.924;2023-10-19T08:28:25;10.05;;;2.92;;
30874;SDS011;17581;43.222;27.924;2023-10-19T08:30:50;24.75;;;2.90;;
30874;SDS011;17581;43.222;27.924;2023-10-19T08:33:25;8.43;;;2.83;;
30874;SDS011;17581;43.222;27.924;2023-10-19T08:35:52;10.68;;;2.42;;
30874;SDS011;17581;43.222;27.924;2023-10-19T08:38:21;19.42;;;2.92;;
30874;SDS011;17581;43.222;27.924;2023-10-19T08:40:51;11.80;;;3.20;;
30874;SDS011;17581;43.222;27.924;2023-10-19T08:43:20;12.18;;;2.35;;
30874;SDS011;17581;43.222;27.924;2023-10-19T08:45:46;17.80;;;3.08;;
30874;SDS011;17581;43.222;27.924;2023-10-19T08:48:12;21.02;;;3.50;;
30874;SDS011;17581;43.222;27.924;2023-10-19T08:50:39;17.10;;;2.58;;
30874;SDS011;17581;43.222;27.924;2023-10-19T08:53:05;15.52;;;2.88;;
30874;SDS011;17581;43.222;27.924;2023-10-19T08:55:33;22.08;;;2.95;;
30874;SDS011;17581;43.222;27.924;2023-10-19T08:58:00;12.02;;;2.80;;
30874;SDS011;17581;43.222;27.924;2023-10-19T09:00:26;13.00;;;2.58;;
30874;SDS011;17581;43.222;27.924;2023-10-19T09:02:52;7.82;;;3.00;;
30874;SDS011;17581;43.222;27.924;2023-10-19T09:05:18;30.08;;;5.43;;
30874;SDS011;17581;43.222;27.924;2023-10-19T09:07:52;24.92;;;3.22;;
30874;SDS011;17581;43.222;27.924;2023-10-19T09:10:27;8.57;;;2.60;;
30874;SDS011;17581;43.222;27.924;2023-10-19T09:12:58;15.40;;;2.78;;
30874;SDS011;17581;43.222;27.924;2023-10-19T09:15:27;23.48;;;3.88;;
30874;SDS011;17581;43.222;27.924;2023-10-19T09:17:55;11.40;;;3.05;;
30874;SDS011;17581;43.222;27.924;2023-10-19T09:20:21;43.03;;;5.38;;
30874;SDS011;17581;43.222;27.924;2023-10-19T09:22:53;11.80;;;2.95;;
30874;SDS011;17581;43.222;27.924;2023-10-19T09:25:20;18.85;;;4.70;;
30874;SDS011;17581;43.222;27.924;2023-10-19T09:27:46;15.77;;;3.08;;
30874;SDS011;17581;43.222;27.924;2023-10-19T09:30:12;9.48;;;3.20;;
30874;SDS011;17581;43.222;27.924;2023-10-19T09:32:46;12.15;;;3.95;;
30874;SDS011;17581;43.222;27.924;2023-10-19T09:35:13;21.52;;;2.97;;
30874;SDS011;17581;43.222;27.924;2023-10-19T09:37:41;12.10;;;4.13;;
30874;SDS011;17581;43.222;27.924;2023-10-19T09:40:08;22.77;;;3.80;;
30874;SDS011;17581;43.222;27.924;2023-10-19T09:42:42;9.25;;;2.75;;
30874;SDS011;17581;43.222;27.924;2023-10-19T09:45:11;15.18;;;3.13;;
30874;SDS011;17581;43.222;27.924;2023-10-19T09:47:38;31.00;;;4.03;;
30874;SDS011;17581;43.222;27.924;2023-10-19T09:50:06;20.23;;;3.42;;
30874;SDS011;17581;43.222;27.924;2023-10-19T09:52:36;14.30;;;3.08;;
30874;SDS011;17581;43.222;27.924;2023-10-19T09:55:08;9.77;;;3.10;;
30874;SDS011;17581;43.222;27.924;2023-10-19T09:57:50;7.13;;;2.30;;
30874;SDS011;17581;43.222;27.924;2023-10-19T10:00:18;6.03;;;2.85;;
30874;SDS011;17581;43.222;27.924;2023-10-19T10:02:50;13.40;;;2.97;;
30874;SDS011;17581;43.222;27.924;2023-10-19T10:10:44;6.60;;;2.70;;
30874;SDS011;17581;43.222;27.924;2023-10-19T10:15:49;9.07;;;2.72;;
30874;SDS011;17581;43.222;27.924;2023-10-19T10:18:18;14.90;;;3.63;;
30874;SDS011;17581;43.222;27.924;2023-10-19T10:20:44;13.00;;;3.05;;
30874;SDS011;17581;43.222;27.924;2023-10-19T10:23:21;9.63;;;2.67;;
30874;SDS011;17581;43.222;27.924;2023-10-19T10:25:57;11.15;;;2.78;;
30874;SDS011;17581;43.222;27.924;2023-10-19T10:28:23;12.35;;;2.38;;
30874;SDS011;17581;43.222;27.924;2023-10-19T10:33:53;6.68;;;2.42;;
30874;SDS011;17581;43.222;27.924;2023-10-19T10:36:22;18.88;;;2.80;;
30874;SDS011;17581;43.222;27.924;2023-10-19T10:38:48;6.25;;;2.45;;
30874;SDS011;17581;43.222;27.924;2023-10-19T10:41:24;8.73;;;3.35;;
30874;SDS011;17581;43.222;27.924;2023-10-19T10:43:54;14.45;;;4.45;;
30874;SDS011;17581;43.222;27.924;2023-10-19T10:46:25;16.77;;;3.83;;
30874;SDS011;17581;43.222;27.924;2023-10-19T10:48:52;8.52;;;2.92;;
30874;SDS011;17581;43.222;27.924;2023-10-19T10:51:27;11.00;;;2.80;;
30874;SDS011;17581;43.222;27.924;2023-10-19T10:53:56;11.40;;;2.75;;
30874;SDS011;17581;43.222;27.924;2023-10-19T10:56:23;13.30;;;2.60;;
30874;SDS011;17581;43.222;27.924;2023-10-19T10:58:49;11.98;;;3.47;;
30874;SDS011;17581;43.222;27.924;2023-10-19T11:01:15;18.25;;;2.85;;
30874;SDS011;17581;43.222;27.924;2023-10-19T11:04:04;16.98;;;3.30;;
30874;SDS011;17581;43.222;27.924;2023-10-19T11:06:47;11.63;;;2.72;;
30874;SDS011;17581;43.222;27.924;2023-10-19T11:09:14;12.50;;;2.65;;
30874;SDS011;17581;43.222;27.924;2023-10-19T11:11:43;12.70;;;3.20;;
30874;SDS011;17581;43.222;27.924;2023-10-19T11:14:10;20.15;;;3.10;;
30874;SDS011;17581;43.222;27.924;2023-10-19T11:16:36;16.83;;;2.67;;
30874;SDS011;17581;43.222;27.924;2023-10-19T11:19:04;16.60;;;3.38;;
30874;SDS011;17581;43.222;27.924;2023-10-19T11:21:29;12.60;;;2.55;;
30874;SDS011;17581;43.222;27.924;2023-10-19T11:23:55;12.50;;;2.92;;
30874;SDS011;17581;43.222;27.924;2023-10-19T11:26:22;9.38;;;2.40;;
30874;SDS011;17581;43.222;27.924;2023-10-19T11:28:58;11.00;;;2.55;;
30874;SDS011;17581;43.222;27.924;2023-10-19T11:31:34;17.40;;;3.42;;
30874;SDS011;17581;43.222;27.924;2023-10-19T11:34:04;12.63;;;2.70;;
30874;SDS011;17581;43.222;27.924;2023-10-19T11:36:30;8.20;;;3.42;;
30874;SDS011;17581;43.222;27.924;2023-10-19T11:38:56;34.13;;;3.08;;
30874;SDS011;17581;43.222;27.924;2023-10-19T11:41:22;18.67;;;3.65;;
30874;SDS011;17581;43.222;27.924;2023-10-19T11:43:48;16.33;;;3.20;;
30874;SDS011;17581;43.222;27.924;2023-10-19T11:46:14;6.75;;;2.47;;
30874;SDS011;17581;43.222;27.924;2023-10-19T11:48:41;3.50;;;1.70;;
30874;SDS011;17581;43.222;27.924;2023-10-19T11:51:09;17.48;;;4.00;;
30874;SDS011;17581;43.222;27.924;2023-10-19T11:53:40;24.30;;;3.78;;
30874;SDS011;17581;43.222;27.924;2023-10-19T11:56:08;13.70;;;3.80;;
30874;SDS011;17581;43.222;27.924;2023-10-19T11:58:37;11.48;;;2.80;;
30874;SDS011;17581;43.222;27.924;2023-10-19T12:01:06;9.77;;;2.85;;
30874;SDS011;17581;43.222;27.924;2023-10-19T12:03:42;8.15;;;2.30;;
30874;SDS011;17581;43.222;27.924;2023-10-19T12:06:10;8.38;;;2.10;;
30874;SDS011;17581;43.222;27.924;2023-10-19T12:08:37;7.57;;;2.60;;
30874;SDS011;17581;43.222;27.924;2023-10-19T12:11:04;12.32;;;2.97;;
30874;SDS011;17581;43.222;27.924;2023-10-19T12:13:40;7.68;;;2.20;;
30874;SDS011;17581;43.222;27.924;2023-10-19T12:16:09;9.70;;;2.40;;
30874;SDS011;17581;43.222;27.924;2023-10-19T12:18:38;12.20;;;2.88;;
30874;SDS011;17581;43.222;27.924;2023-10-19T12:21:04;3.90;;;2.38;;
30874;SDS011;17581;43.222;27.924;2023-10-19T12:23:33;16.48;;;2.97;;
30874;SDS011;17581;43.222;27.924;2023-10-19T12:25:58;19.77;;;3.75;;
30874;SDS011;17581;43.222;27.924;2023-10-19T12:28:28;14.57;;;2.83;;
30874;SDS011;17581;43.222;27.924;2023-10-19T12:30:53;9.50;;;2.35;;
30874;SDS011;17581;43.222;27.924;2023-10-19T12:33:19;13.57;;;2.92;;
30874;SDS011;17581;43.222;27.924;2023-10-19T12:35:44;9.32;;;2.58;;
30874;SDS011;17581;43.222;27.924;2023-10-19T12:38:13;5.45;;;2.10;;
30874;SDS011;17581;43.222;27.924;2023-10-19T12:40:42;6.22;;;2.80;;
30874;SDS011;17581;43.222;27.924;2023-10-19T12:43:12;9.93;;;3.15;;
30874;SDS011;17581;43.222;27.924;2023-10-19T12:45:40;17.83;;;2.70;;
30874;SDS011;17581;43.222;27.924;2023-10-19T12:48:07;9.75;;;1.92;;
30874;SDS011;17581;43.222;27.924;2023-10-19T12:50:36;9.20;;;2.25;;
30874;SDS011;17581;43.222;27.924;2023-10-19T12:53:02;9.80;;;2.83;;
30874;SDS011;17581;43.222;27.924;2023-10-19T12:55:28;9.52;;;2.58;;
30874;SDS011;17581;43.222;27.924;2023-10-19T12:57:56;9.15;;;1.63;;
30874;SDS011;17581;43.222;27.924;2023-10-19T13:00:22;8.88;;;2.42;;
30874;SDS011;17581;43.222;27.924;2023-10-19T13:02:49;6.95;;;2.25;;
30874;SDS011;17581;43.222;27.924;2023-10-19T13:05:15;6.22;;;3.03;;
30874;SDS011;17581;43.222;27.924;2023-10-19T13:07:46;31.25;;;4.00;;
30874;SDS011;17581;43.222;27.924;2023-10-19T13:10:12;8.35;;;2.40;;
30874;SDS011;17581;43.222;27.924;2023-10-19T13:12:37;12.43;;;2.58;;
30874;SDS011;17581;43.222;27.924;2023-10-19T13:15:04;9.32;;;1.77;;
30874;SDS011;17581;43.222;27.924;2023-10-19T13:17:37;6.68;;;1.95;;
30874;SDS011;17581;43.222;27.924;2023-10-19T13:20:03;8.98;;;2.10;;
30874;SDS011;17581;43.222;27.924;2023-10-19T13:22:41;8.23;;;2.63;;
30874;SDS011;17581;43.222;27.924;2023-10-19T13:25:07;9.07;;;2.53;;
30874;SDS011;17581;43.222;27.924;2023-10-19T13:27:34;16.58;;;2.35;;
30874;SDS011;17581;43.222;27.924;2023-10-19T13:30:00;18.65;;;3.25;;
30874;SDS011;17581;43.222;27.924;2023-10-19T13:32:29;19.88;;;3.25;;
30874;SDS011;17581;43.222;27.924;2023-10-19T13:34:56;14.60;;;2.55;;
30874;SDS011;17581;43.222;27.924;2023-10-19T13:37:21;11.63;;;2.83;;
30874;SDS011;17581;43.222;27.924;2023-10-19T13:39:47;16.25;;;2.72;;
30874;SDS011;17581;43.222;27.924;2023-10-19T13:42:14;10.52;;;2.78;;
30874;SDS011;17581;43.222;27.924;2023-10-19T13:44:39;15.85;;;2.85;;
30874;SDS011;17581;43.222;27.924;2023-10-19T13:47:05;15.50;;;2.97;;
30874;SDS011;17581;43.222;27.924;2023-10-19T13:49:31;7.03;;;2.05;;
30874;SDS011;17581;43.222;27.924;2023-10-19T13:51:57;5.15;;;2.55;;
30874;SDS011;17581;43.222;27.924;2023-10-19T13:54:23;33.80;;;7.60;;
30874;SDS011;17581;43.222;27.924;2023-10-19T13:56:48;22.88;;;3.25;;
30874;SDS011;17581;43.222;27.924;2023-10-19T13:59:15;9.48;;;2.85;;
30874;SDS011;17581;43.222;27.924;2023-10-19T14:01:41;5.10;;;2.20;;
30874;SDS011;17581;43.222;27.924;2023-10-19T14:04:06;15.65;;;3.85;;
30874;SDS011;17581;43.222;27.924;2023-10-19T14:06:32;9.50;;;2.53;;
30874;SDS011;17581;43.222;27.924;2023-10-19T14:08:57;9.70;;;2.30;;
30874;SDS011;17581;43.222;27.924;2023-10-19T14:11:23;31.08;;;3.10;;
30874;SDS011;17581;43.222;27.924;2023-10-19T14:13:48;9.48;;;2.80;;
30874;SDS011;17581;43.222;27.924;2023-10-19T14:16:17;9.60;;;2.40;;
30874;SDS011;17581;43.222;27.924;2023-10-19T14:18:42;11.32;;;3.28;;
30874;SDS011;17581;43.222;27.924;2023-10-19T14:21:13;14.32;;;2.92;;
30874;SDS011;17581;43.222;27.924;2023-10-19T14:23:42;13.23;;;2.85;;
30874;SDS011;17581;43.222;27.924;2023-10-19T14:26:09;8.43;;;2.55;;
30874;SDS011;17581;43.222;27.924;2023-10-19T14:28:35;7.85;;;2.20;;
30874;SDS011;17581;43.222;27.924;2023-10-19T14:31:01;26.45;;;5.03;;
30874;SDS011;17581;43.222;27.924;2023-10-19T14:33:29;6.22;;;2.25;;
30874;SDS011;17581;43.222;27.924;2023-10-19T14:35:55;18.05;;;2.45;;
30874;SDS011;17581;43.222;27.924;2023-10-19T14:38:20;8.20;;;2.78;;
30874;SDS011;17581;43.222;27.924;2023-10-19T14:40:46;12.85;;;2.88;;
30874;SDS011;17581;43.222;27.924;2023-10-19T14:43:13;6.40;;;2.50;;